sensor_id;sensor_type;location;lat;lon;timestamp;P1;durP1;ratioP1;P2;durP2;ratioP2
47778;SDS011;33538;48.432;11.350;2023-02-28T00:02:08;3.50;;;2.38;;
47778;SDS011;33538;48.432;11.350;2023-02-28T00:04:36;4.20;;;2.90;;
47778;SDS011;33538;48.432;11.350;2023-02-28T00:07:03;3.42;;;2.40;;
47778;SDS011;33538;48.432;11.350;2023-02-28T00:09:30;6.22;;;2.70;;
47778;SDS011;33538;48.432;11.350;2023-02-28T00:11:57;5.72;;;2.78;;
47778;SDS011;33538;48.432;11.350;2023-02-28T00:14:24;7.18;;;3.05;;
47778;SDS011;33538;48.432;11.350;2023-02-28T00:16:50;4.82;;;2.33;;
47778;SDS011;33538;48.432;11.350;2023-02-28T00:19:17;7.25;;;2.20;;
47778;SDS011;33538;48.432;11.350;2023-02-28T00:21:45;10.45;;;2.70;;
47778;SDS011;33538;48.432;11.350;2023-02-28T00:24:12;4.30;;;2.08;;
47778;SDS011;33538;48.432;11.350;2023-02-28T00:26:39;3.97;;;2.22;;
47778;SDS011;33538;48.432;11.350;2023-02-28T00:29:05;4.07;;;2.15;;
47778;SDS011;33538;48.432;11.350;2023-02-28T00:31:32;3.47;;;1.83;;
47778;SDS011;33538;48.432;11.350;2023-02-28T00:33:59;3.72;;;1.92;;
47778;SDS011;33538;48.432;11.350;2023-02-28T00:36:26;5.53;;;2.15;;
47778;SDS011;33538;48.432;11.350;2023-02-28T00:38:54;4.65;;;2.45;;
47778;SDS011;33538;48.432;11.350;2023-02-28T00:41:21;6.85;;;2.85;;
47778;SDS011;33538;48.432;11.350;2023-02-28T00:43:47;4.70;;;2.28;;
47778;SDS011;33538;48.432;11.350;2023-02-28T00:46:14;5.75;;;2.42;;
47778;SDS011;33538;48.432;11.350;2023-02-28T00:48:41;6.45;;;2.72;;
47778;SDS011;33538;48.432;11.350;2023-02-28T00:51:08;7.63;;;2.88;;
47778;SDS011;33538;48.432;11.350;2023-02-28T00:53:35;6.60;;;3.40;;
47778;SDS011;33538;48.432;11.350;2023-02-28T00:56:03;6.43;;;2.63;;
47778;SDS011;33538;48.432;11.350;2023-02-28T00:58:30;3.75;;;1.92;;
47778;SDS011;33538;48.432;11.350;2023-02-28T01:00:57;3.88;;;2.28;;
47778;SDS011;33538;48.432;11.350;2023-02-28T01:03:24;3.17;;;2.15;;
47778;SDS011;33538;48.432;11.350;2023-02-28T01:05:51;3.72;;;2.03;;
47778;SDS011;33538;48.432;11.350;2023-02-28T01:08:18;4.90;;;1.88;;
47778;SDS011;33538;48.432;11.350;2023-02-28T01:10:45;5.28;;;2.95;;
47778;SDS011;33538;48.432;11.350;2023-02-28T01:13:13;5.95;;;2.22;;
47778;SDS011;33538;48.432;11.350;2023-02-28T01:15:41;4.63;;;2.35;;
47778;SDS011;33538;48.432;11.350;2023-02-28T01:18:14;4.55;;;2.38;;
47778;SDS011;33538;48.432;11.350;2023-02-28T01:20:41;5.25;;;2.95;;
47778;SDS011;33538;48.432;11.350;2023-02-28T01:23:07;4.47;;;2.05;;
47778;SDS011;33538;48.432;11.350;2023-02-28T01:25:35;6.75;;;2.53;;
47778;SDS011;33538;48.432;11.350;2023-02-28T01:28:02;7.53;;;2.45;;
47778;SDS011;33538;48.432;11.350;2023-02-28T01:30:31;4.40;;;2.25;;
47778;SDS011;33538;48.432;11.350;2023-02-28T01:32:58;3.88;;;2.55;;
47778;SDS011;33538;48.432;11.350;2023-02-28T01:35:26;6.63;;;2.88;;
47778;SDS011;33538;48.432;11.350;2023-02-28T01:37:52;5.35;;;2.90;;
47778;SDS011;33538;48.432;11.350;2023-02-28T01:40:19;4.07;;;2.40;;
47778;SDS011;33538;48.432;11.350;2023-02-28T01:42:46;7.32;;;3.35;;
47778;SDS011;33538;48.432;11.350;2023-02-28T01:45:17;5.25;;;2.38;;
47778;SDS011;33538;48.432;11.350;2023-02-28T01:47:50;5.68;;;2.65;;
47778;SDS011;33538;48.432;11.350;2023-02-28T01:50:19;5.55;;;2.65;;
47778;SDS011;33538;48.432;11.350;2023-02-28T01:52:48;4.60;;;2.80;;
47778;SDS011;33538;48.432;11.350;2023-02-28T01:55:17;5.35;;;2.90;;
47778;SDS011;33538;48.432;11.350;2023-02-28T01:57:46;3.15;;;1.85;;
47778;SDS011;33538;48.432;11.350;2023-02-28T02:00:17;3.40;;;2.30;;
47778;SDS011;33538;48.432;11.350;2023-02-28T02:02:48;5.75;;;2.78;;
47778;SDS011;33538;48.432;11.350;2023-02-28T02:05:20;7.10;;;2.67;;
47778;SDS011;33538;48.432;11.350;2023-02-28T02:07:48;7.82;;;3.63;;
47778;SDS011;33538;48.432;11.350;2023-02-28T02:10:19;6.72;;;1.98;;
47778;SDS011;33538;48.432;11.350;2023-02-28T02:12:53;6.63;;;2.47;;
47778;SDS011;33538;48.432;11.350;2023-02-28T02:15:34;6.35;;;2.90;;
47778;SDS011;33538;48.432;11.350;2023-02-28T02:18:09;5.15;;;2.75;;
47778;SDS011;33538;48.432;11.350;2023-02-28T02:20:51;4.80;;;2.45;;
47778;SDS011;33538;48.432;11.350;2023-02-28T02:23:43;6.55;;;3.10;;
47778;SDS011;33538;48.432;11.350;2023-02-28T02:26:45;4.03;;;2.30;;
47778;SDS011;33538;48.432;11.350;2023-02-28T02:29:34;9.68;;;3.17;;
47778;SDS011;33538;48.432;11.350;2023-02-28T02:32:13;3.85;;;2.53;;
47778;SDS011;33538;48.432;11.350;2023-02-28T02:34:56;7.38;;;2.72;;
47778;SDS011;33538;48.432;11.350;2023-02-28T02:37:32;8.23;;;3.35;;
47778;SDS011;33538;48.432;11.350;2023-02-28T02:40:07;10.38;;;3.22;;
47778;SDS011;33538;48.432;11.350;2023-02-28T02:42:40;6.15;;;3.42;;
47778;SDS011;33538;48.432;11.350;2023-02-28T02:45:12;6.03;;;3.05;;
47778;SDS011;33538;48.432;11.350;2023-02-28T02:47:41;8.05;;;2.88;;
47778;SDS011;33538;48.432;11.350;2023-02-28T02:50:12;8.52;;;3.53;;
47778;SDS011;33538;48.432;11.350;2023-02-28T02:52:44;6.13;;;2.88;;
47778;SDS011;33538;48.432;11.350;2023-02-28T02:55:14;6.32;;;3.25;;
47778;SDS011;33538;48.432;11.350;2023-02-28T02:57:43;9.20;;;4.50;;
47778;SDS011;33538;48.432;11.350;2023-02-28T03:00:13;6.00;;;2.72;;
47778;SDS011;33538;48.432;11.350;2023-02-28T03:02:42;6.80;;;2.95;;
47778;SDS011;33538;48.432;11.350;2023-02-28T03:05:14;7.10;;;3.25;;
47778;SDS011;33538;48.432;11.350;2023-02-28T03:07:45;6.45;;;3.45;;
47778;SDS011;33538;48.432;11.350;2023-02-28T03:10:28;8.77;;;3.17;;
47778;SDS011;33538;48.432;11.350;2023-02-28T03:13:00;7.15;;;3.85;;
47778;SDS011;33538;48.432;11.350;2023-02-28T03:15:38;4.88;;;2.85;;
47778;SDS011;33538;48.432;11.350;2023-02-28T03:18:17;4.15;;;2.38;;
47778;SDS011;33538;48.432;11.350;2023-02-28T03:20:54;8.15;;;4.07;;
47778;SDS011;33538;48.432;11.350;2023-02-28T03:23:28;5.25;;;2.72;;
47778;SDS011;33538;48.432;11.350;2023-02-28T03:26:03;6.47;;;3.67;;
47778;SDS011;33538;48.432;11.350;2023-02-28T03:31:07;6.38;;;3.03;;
47778;SDS011;33538;48.432;11.350;2023-02-28T03:33:40;9.55;;;4.47;;
47778;SDS011;33538;48.432;11.350;2023-02-28T03:36:13;6.65;;;2.90;;
47778;SDS011;33538;48.432;11.350;2023-02-28T03:38:46;6.13;;;3.28;;
47778;SDS011;33538;48.432;11.350;2023-02-28T03:41:15;7.13;;;3.58;;
47778;SDS011;33538;48.432;11.350;2023-02-28T03:43:47;7.00;;;3.60;;
47778;SDS011;33538;48.432;11.350;2023-02-28T03:46:18;7.55;;;4.40;;
47778;SDS011;33538;48.432;11.350;2023-02-28T03:48:51;7.10;;;3.28;;
47778;SDS011;33538;48.432;11.350;2023-02-28T03:51:23;9.10;;;3.95;;
47778;SDS011;33538;48.432;11.350;2023-02-28T03:53:53;6.95;;;3.22;;
47778;SDS011;33538;48.432;11.350;2023-02-28T03:56:23;6.57;;;3.22;;
47778;SDS011;33538;48.432;11.350;2023-02-28T03:58:55;9.05;;;3.72;;
47778;SDS011;33538;48.432;11.350;2023-02-28T04:01:27;9.18;;;3.58;;
47778;SDS011;33538;48.432;11.350;2023-02-28T04:03:58;6.38;;;3.58;;
47778;SDS011;33538;48.432;11.350;2023-02-28T04:06:26;6.95;;;3.42;;
47778;SDS011;33538;48.432;11.350;2023-02-28T04:08:53;7.28;;;2.90;;
47778;SDS011;33538;48.432;11.350;2023-02-28T04:11:21;6.97;;;3.47;;
47778;SDS011;33538;48.432;11.350;2023-02-28T04:13:50;10.38;;;3.83;;
47778;SDS011;33538;48.432;11.350;2023-02-28T04:16:17;7.32;;;3.72;;
47778;SDS011;33538;48.432;11.350;2023-02-28T04:18:59;9.93;;;3.80;;
47778;SDS011;33538;48.432;11.350;2023-02-28T04:21:28;7.75;;;3.97;;
47778;SDS011;33538;48.432;11.350;2023-02-28T04:23:55;6.90;;;4.07;;
47778;SDS011;33538;48.432;11.350;2023-02-28T04:26:22;9.07;;;4.25;;
47778;SDS011;33538;48.432;11.350;2023-02-28T04:28:49;8.93;;;3.47;;
47778;SDS011;33538;48.432;11.350;2023-02-28T04:31:15;8.82;;;3.70;;
47778;SDS011;33538;48.432;11.350;2023-02-28T04:33:42;8.05;;;3.70;;
47778;SDS011;33538;48.432;11.350;2023-02-28T04:36:09;8.48;;;3.72;;
47778;SDS011;33538;48.432;11.350;2023-02-28T04:38:37;8.65;;;3.80;;
47778;SDS011;33538;48.432;11.350;2023-02-28T04:41:05;9.65;;;3.90;;
47778;SDS011;33538;48.432;11.350;2023-02-28T04:43:32;7.80;;;3.70;;
47778;SDS011;33538;48.432;11.350;2023-02-28T04:46:00;7.80;;;4.18;;
47778;SDS011;33538;48.432;11.350;2023-02-28T04:48:29;12.23;;;4.10;;
47778;SDS011;33538;48.432;11.350;2023-02-28T04:50:59;5.93;;;3.38;;
47778;SDS011;33538;48.432;11.350;2023-02-28T04:53:27;11.55;;;4.07;;
47778;SDS011;33538;48.432;11.350;2023-02-28T04:55:55;8.35;;;3.33;;
47778;SDS011;33538;48.432;11.350;2023-02-28T04:58:22;10.18;;;4.32;;
47778;SDS011;33538;48.432;11.350;2023-02-28T05:00:49;10.93;;;5.55;;
47778;SDS011;33538;48.432;11.350;2023-02-28T05:03:15;6.53;;;3.30;;
47778;SDS011;33538;48.432;11.350;2023-02-28T05:05:42;8.68;;;3.85;;
47778;SDS011;33538;48.432;11.350;2023-02-28T05:08:09;10.20;;;4.13;;
47778;SDS011;33538;48.432;11.350;2023-02-28T05:10:36;6.85;;;4.10;;
47778;SDS011;33538;48.432;11.350;2023-02-28T05:13:04;10.00;;;4.55;;
47778;SDS011;33538;48.432;11.350;2023-02-28T05:15:31;11.07;;;4.88;;
47778;SDS011;33538;48.432;11.350;2023-02-28T05:18:00;13.27;;;5.03;;
47778;SDS011;33538;48.432;11.350;2023-02-28T05:20:27;10.77;;;4.25;;
47778;SDS011;33538;48.432;11.350;2023-02-28T05:22:54;9.05;;;4.30;;
47778;SDS011;33538;48.432;11.350;2023-02-28T05:25:21;9.38;;;4.40;;
47778;SDS011;33538;48.432;11.350;2023-02-28T05:27:48;7.07;;;3.78;;
47778;SDS011;33538;48.432;11.350;2023-02-28T05:30:16;8.20;;;3.83;;
47778;SDS011;33538;48.432;11.350;2023-02-28T05:32:43;7.40;;;4.32;;
47778;SDS011;33538;48.432;11.350;2023-02-28T05:35:10;10.20;;;4.20;;
47778;SDS011;33538;48.432;11.350;2023-02-28T05:37:38;11.18;;;5.00;;
47778;SDS011;33538;48.432;11.350;2023-02-28T05:40:05;8.43;;;3.42;;
47778;SDS011;33538;48.432;11.350;2023-02-28T05:42:33;6.88;;;4.25;;
47778;SDS011;33538;48.432;11.350;2023-02-28T05:45:00;10.60;;;4.78;;
47778;SDS011;33538;48.432;11.350;2023-02-28T05:47:28;7.95;;;4.10;;
47778;SDS011;33538;48.432;11.350;2023-02-28T05:49:57;8.55;;;3.50;;
47778;SDS011;33538;48.432;11.350;2023-02-28T05:52:24;9.02;;;5.10;;
47778;SDS011;33538;48.432;11.350;2023-02-28T05:54:51;10.68;;;4.22;;
47778;SDS011;33538;48.432;11.350;2023-02-28T05:57:17;11.13;;;4.65;;
47778;SDS011;33538;48.432;11.350;2023-02-28T05:59:50;8.60;;;4.22;;
47778;SDS011;33538;48.432;11.350;2023-02-28T06:02:17;10.88;;;5.25;;
47778;SDS011;33538;48.432;11.350;2023-02-28T06:04:45;7.95;;;4.00;;
47778;SDS011;33538;48.432;11.350;2023-02-28T06:07:12;9.18;;;4.80;;
47778;SDS011;33538;48.432;11.350;2023-02-28T06:09:39;9.88;;;4.75;;
47778;SDS011;33538;48.432;11.350;2023-02-28T06:12:06;13.10;;;4.75;;
47778;SDS011;33538;48.432;11.350;2023-02-28T06:14:33;11.27;;;4.78;;
47778;SDS011;33538;48.432;11.350;2023-02-28T06:17:00;6.85;;;3.47;;
47778;SDS011;33538;48.432;11.350;2023-02-28T06:19:27;7.93;;;4.30;;
47778;SDS011;33538;48.432;11.350;2023-02-28T06:21:56;11.98;;;4.47;;
47778;SDS011;33538;48.432;11.350;2023-02-28T06:24:23;10.63;;;4.72;;
47778;SDS011;33538;48.432;11.350;2023-02-28T06:26:51;11.95;;;4.45;;
47778;SDS011;33538;48.432;11.350;2023-02-28T06:29:17;7.93;;;4.10;;
47778;SDS011;33538;48.432;11.350;2023-02-28T06:31:44;7.40;;;4.10;;
47778;SDS011;33538;48.432;11.350;2023-02-28T06:34:12;8.25;;;4.25;;
47778;SDS011;33538;48.432;11.350;2023-02-28T06:36:39;8.65;;;4.50;;
47778;SDS011;33538;48.432;11.350;2023-02-28T06:39:08;9.70;;;4.57;;
47778;SDS011;33538;48.432;11.350;2023-02-28T06:41:35;12.15;;;4.97;;
47778;SDS011;33538;48.432;11.350;2023-02-28T06:46:46;7.10;;;3.33;;
47778;SDS011;33538;48.432;11.350;2023-02-28T06:49:13;7.10;;;3.60;;
47778;SDS011;33538;48.432;11.350;2023-02-28T06:51:41;12.23;;;5.28;;
47778;SDS011;33538;48.432;11.350;2023-02-28T06:54:11;9.27;;;4.30;;
47778;SDS011;33538;48.432;11.350;2023-02-28T06:56:38;11.88;;;4.75;;
47778;SDS011;33538;48.432;11.350;2023-02-28T06:59:05;7.50;;;3.40;;
47778;SDS011;33538;48.432;11.350;2023-02-28T07:01:32;5.57;;;3.38;;
47778;SDS011;33538;48.432;11.350;2023-02-28T07:03:59;10.23;;;4.95;;
47778;SDS011;33538;48.432;11.350;2023-02-28T07:06:26;10.57;;;4.68;;
47778;SDS011;33538;48.432;11.350;2023-02-28T07:08:53;10.02;;;4.22;;
47778;SDS011;33538;48.432;11.350;2023-02-28T07:11:23;10.73;;;4.97;;
47778;SDS011;33538;48.432;11.350;2023-02-28T07:13:51;9.63;;;5.00;;
47778;SDS011;33538;48.432;11.350;2023-02-28T07:16:17;8.27;;;4.30;;
47778;SDS011;33538;48.432;11.350;2023-02-28T07:18:44;14.88;;;4.35;;
47778;SDS011;33538;48.432;11.350;2023-02-28T07:21:11;9.35;;;4.40;;
47778;SDS011;33538;48.432;11.350;2023-02-28T07:23:38;12.60;;;5.63;;
47778;SDS011;33538;48.432;11.350;2023-02-28T07:26:06;7.70;;;4.32;;
47778;SDS011;33538;48.432;11.350;2023-02-28T07:28:37;12.98;;;5.18;;
47778;SDS011;33538;48.432;11.350;2023-02-28T07:31:04;10.38;;;3.97;;
47778;SDS011;33538;48.432;11.350;2023-02-28T07:33:32;13.98;;;5.30;;
47778;SDS011;33538;48.432;11.350;2023-02-28T07:36:00;10.55;;;4.95;;
47778;SDS011;33538;48.432;11.350;2023-02-28T07:38:27;9.75;;;4.68;;
47778;SDS011;33538;48.432;11.350;2023-02-28T07:40:53;10.93;;;5.35;;
47778;SDS011;33538;48.432;11.350;2023-02-28T07:43:20;9.82;;;4.70;;
47778;SDS011;33538;48.432;11.350;2023-02-28T07:45:48;9.05;;;4.72;;
47778;SDS011;33538;48.432;11.350;2023-02-28T07:48:15;11.05;;;5.32;;
47778;SDS011;33538;48.432;11.350;2023-02-28T07:50:42;10.35;;;3.90;;
47778;SDS011;33538;48.432;11.350;2023-02-28T07:53:08;11.02;;;5.65;;
47778;SDS011;33538;48.432;11.350;2023-02-28T07:55:35;15.45;;;6.80;;
47778;SDS011;33538;48.432;11.350;2023-02-28T07:58:02;12.38;;;4.53;;
47778;SDS011;33538;48.432;11.350;2023-02-28T08:00:29;15.25;;;6.18;;
47778;SDS011;33538;48.432;11.350;2023-02-28T08:02:57;7.03;;;4.25;;
47778;SDS011;33538;48.432;11.350;2023-02-28T08:05:24;12.23;;;5.93;;
47778;SDS011;33538;48.432;11.350;2023-02-28T08:07:51;11.77;;;5.85;;
47778;SDS011;33538;48.432;11.350;2023-02-28T08:10:18;10.80;;;5.32;;
47778;SDS011;33538;48.432;11.350;2023-02-28T08:12:44;11.73;;;4.55;;
47778;SDS011;33538;48.432;11.350;2023-02-28T08:15:11;10.25;;;5.82;;
47778;SDS011;33538;48.432;11.350;2023-02-28T08:17:38;8.95;;;4.70;;
47778;SDS011;33538;48.432;11.350;2023-02-28T08:20:07;15.25;;;5.20;;
47778;SDS011;33538;48.432;11.350;2023-02-28T08:22:34;12.52;;;5.72;;
47778;SDS011;33538;48.432;11.350;2023-02-28T08:25:01;10.13;;;4.90;;
47778;SDS011;33538;48.432;11.350;2023-02-28T08:27:28;11.82;;;5.90;;
47778;SDS011;33538;48.432;11.350;2023-02-28T08:29:54;16.05;;;7.78;;
47778;SDS011;33538;48.432;11.350;2023-02-28T08:32:21;13.63;;;5.57;;
47778;SDS011;33538;48.432;11.350;2023-02-28T08:37:23;12.80;;;5.53;;
47778;SDS011;33538;48.432;11.350;2023-02-28T08:39:50;9.98;;;5.15;;
47778;SDS011;33538;48.432;11.350;2023-02-28T08:42:21;9.43;;;5.25;;
47778;SDS011;33538;48.432;11.350;2023-02-28T08:44:48;9.65;;;4.60;;
47778;SDS011;33538;48.432;11.350;2023-02-28T08:47:14;11.68;;;5.75;;
47778;SDS011;33538;48.432;11.350;2023-02-28T08:49:41;12.18;;;4.57;;
47778;SDS011;33538;48.432;11.350;2023-02-28T08:52:08;10.38;;;5.50;;
47778;SDS011;33538;48.432;11.350;2023-02-28T08:54:36;17.83;;;7.78;;
47778;SDS011;33538;48.432;11.350;2023-02-28T08:57:03;13.68;;;6.63;;
47778;SDS011;33538;48.432;11.350;2023-02-28T08:59:30;16.05;;;7.85;;
47778;SDS011;33538;48.432;11.350;2023-02-28T09:01:57;16.17;;;7.20;;
47778;SDS011;33538;48.432;11.350;2023-02-28T09:04:23;14.55;;;6.50;;
47778;SDS011;33538;48.432;11.350;2023-02-28T09:06:50;13.65;;;5.88;;
47778;SDS011;33538;48.432;11.350;2023-02-28T09:09:17;10.30;;;5.57;;
47778;SDS011;33538;48.432;11.350;2023-02-28T09:11:45;12.98;;;6.43;;
47778;SDS011;33538;48.432;11.350;2023-02-28T09:14:12;12.57;;;5.88;;
47778;SDS011;33538;48.432;11.350;2023-02-28T09:16:39;19.67;;;7.45;;
47778;SDS011;33538;48.432;11.350;2023-02-28T09:19:05;14.57;;;6.55;;
47778;SDS011;33538;48.432;11.350;2023-02-28T09:21:32;16.75;;;7.10;;
47778;SDS011;33538;48.432;11.350;2023-02-28T09:23:59;16.05;;;5.57;;
47778;SDS011;33538;48.432;11.350;2023-02-28T09:26:26;9.90;;;5.35;;
47778;SDS011;33538;48.432;11.350;2023-02-28T09:29:09;13.38;;;6.38;;
47778;SDS011;33538;48.432;11.350;2023-02-28T09:31:35;13.15;;;6.57;;
47778;SDS011;33538;48.432;11.350;2023-02-28T09:34:03;15.50;;;7.30;;
47778;SDS011;33538;48.432;11.350;2023-02-28T09:36:30;13.60;;;5.53;;
47778;SDS011;33538;48.432;11.350;2023-02-28T09:39:09;14.15;;;6.53;;
47778;SDS011;33538;48.432;11.350;2023-02-28T09:41:37;15.02;;;7.32;;
47778;SDS011;33538;48.432;11.350;2023-02-28T09:44:06;14.32;;;5.63;;
47778;SDS011;33538;48.432;11.350;2023-02-28T09:46:39;14.18;;;6.00;;
47778;SDS011;33538;48.432;11.350;2023-02-28T09:49:11;15.75;;;7.63;;
47778;SDS011;33538;48.432;11.350;2023-02-28T09:51:44;10.23;;;4.78;;
47778;SDS011;33538;48.432;11.350;2023-02-28T09:54:16;12.40;;;5.32;;
47778;SDS011;33538;48.432;11.350;2023-02-28T09:56:45;12.57;;;6.63;;
47778;SDS011;33538;48.432;11.350;2023-02-28T09:59:18;13.20;;;5.20;;
47778;SDS011;33538;48.432;11.350;2023-02-28T10:01:57;13.23;;;6.90;;
47778;SDS011;33538;48.432;11.350;2023-02-28T10:04:36;15.77;;;6.80;;
47778;SDS011;33538;48.432;11.350;2023-02-28T10:07:11;14.48;;;6.25;;
47778;SDS011;33538;48.432;11.350;2023-02-28T10:09:46;10.02;;;4.53;;
47778;SDS011;33538;48.432;11.350;2023-02-28T10:12:18;14.65;;;6.28;;
47778;SDS011;33538;48.432;11.350;2023-02-28T10:14:49;12.35;;;5.20;;
47778;SDS011;33538;48.432;11.350;2023-02-28T10:17:19;13.73;;;6.88;;
47778;SDS011;33538;48.432;11.350;2023-02-28T10:19:52;13.48;;;6.28;;
47778;SDS011;33538;48.432;11.350;2023-02-28T10:22:25;14.73;;;6.50;;
47778;SDS011;33538;48.432;11.350;2023-02-28T10:24:55;13.90;;;6.97;;
47778;SDS011;33538;48.432;11.350;2023-02-28T10:27:23;10.20;;;5.80;;
47778;SDS011;33538;48.432;11.350;2023-02-28T10:29:53;12.63;;;6.07;;
47778;SDS011;33538;48.432;11.350;2023-02-28T10:32:22;15.75;;;6.38;;
47778;SDS011;33538;48.432;11.350;2023-02-28T10:34:51;15.52;;;5.72;;
47778;SDS011;33538;48.432;11.350;2023-02-28T10:37:21;13.93;;;5.40;;
47778;SDS011;33538;48.432;11.350;2023-02-28T10:39:48;12.20;;;5.88;;
47778;SDS011;33538;48.432;11.350;2023-02-28T10:42:19;18.25;;;8.13;;
47778;SDS011;33538;48.432;11.350;2023-02-28T10:44:48;11.95;;;5.95;;
47778;SDS011;33538;48.432;11.350;2023-02-28T10:47:16;14.85;;;6.78;;
47778;SDS011;33538;48.432;11.350;2023-02-28T10:49:48;15.80;;;6.95;;
47778;SDS011;33538;48.432;11.350;2023-02-28T10:52:31;14.23;;;7.68;;
47778;SDS011;33538;48.432;11.350;2023-02-28T10:57:48;13.18;;;6.97;;
47778;SDS011;33538;48.432;11.350;2023-02-28T11:00:16;15.15;;;6.70;;
47778;SDS011;33538;48.432;11.350;2023-02-28T11:02:46;14.73;;;7.68;;
47778;SDS011;33538;48.432;11.350;2023-02-28T11:05:25;13.02;;;6.53;;
47778;SDS011;33538;48.432;11.350;2023-02-28T11:07:55;13.27;;;6.90;;
47778;SDS011;33538;48.432;11.350;2023-02-28T11:10:24;17.73;;;6.32;;
47778;SDS011;33538;48.432;11.350;2023-02-28T11:12:55;15.52;;;6.65;;
47778;SDS011;33538;48.432;11.350;2023-02-28T11:15:26;13.57;;;6.47;;
47778;SDS011;33538;48.432;11.350;2023-02-28T11:17:56;16.13;;;6.18;;
47778;SDS011;33538;48.432;11.350;2023-02-28T11:20:25;13.48;;;6.65;;
47778;SDS011;33538;48.432;11.350;2023-02-28T11:22:54;15.40;;;5.70;;
47778;SDS011;33538;48.432;11.350;2023-02-28T11:25:24;16.17;;;5.70;;
47778;SDS011;33538;48.432;11.350;2023-02-28T11:27:54;14.52;;;6.82;;
47778;SDS011;33538;48.432;11.350;2023-02-28T11:30:24;13.05;;;6.25;;
47778;SDS011;33538;48.432;11.350;2023-02-28T11:32:52;13.98;;;5.60;;
47778;SDS011;33538;48.432;11.350;2023-02-28T11:35:23;14.73;;;6.15;;
47778;SDS011;33538;48.432;11.350;2023-02-28T11:37:54;9.57;;;5.22;;
47778;SDS011;33538;48.432;11.350;2023-02-28T11:40:22;14.85;;;6.95;;
47778;SDS011;33538;48.432;11.350;2023-02-28T11:42:58;13.00;;;6.85;;
47778;SDS011;33538;48.432;11.350;2023-02-28T11:45:36;15.27;;;6.05;;
47778;SDS011;33538;48.432;11.350;2023-02-28T11:48:13;20.23;;;6.95;;
47778;SDS011;33538;48.432;11.350;2023-02-28T11:50:49;19.55;;;8.43;;
47778;SDS011;33538;48.432;11.350;2023-02-28T11:53:24;11.25;;;5.45;;
47778;SDS011;33538;48.432;11.350;2023-02-28T11:56:06;11.30;;;5.57;;
47778;SDS011;33538;48.432;11.350;2023-02-28T11:58:42;16.80;;;6.88;;
47778;SDS011;33538;48.432;11.350;2023-02-28T12:01:19;17.35;;;6.88;;
47778;SDS011;33538;48.432;11.350;2023-02-28T12:03:58;15.35;;;6.43;;
47778;SDS011;33538;48.432;11.350;2023-02-28T12:06:38;10.90;;;5.68;;
47778;SDS011;33538;48.432;11.350;2023-02-28T12:09:14;17.80;;;7.15;;
47778;SDS011;33538;48.432;11.350;2023-02-28T12:11:56;15.27;;;6.95;;
47778;SDS011;33538;48.432;11.350;2023-02-28T12:14:36;13.93;;;6.57;;
47778;SDS011;33538;48.432;11.350;2023-02-28T12:17:19;13.23;;;6.00;;
47778;SDS011;33538;48.432;11.350;2023-02-28T12:19:55;13.35;;;5.88;;
47778;SDS011;33538;48.432;11.350;2023-02-28T12:22:29;15.82;;;6.78;;
47778;SDS011;33538;48.432;11.350;2023-02-28T12:28:00;14.32;;;6.60;;
47778;SDS011;33538;48.432;11.350;2023-02-28T12:30:28;12.32;;;6.18;;
47778;SDS011;33538;48.432;11.350;2023-02-28T12:33:00;16.00;;;6.63;;
47778;SDS011;33538;48.432;11.350;2023-02-28T12:35:32;12.20;;;6.00;;
47778;SDS011;33538;48.432;11.350;2023-02-28T12:38:04;17.85;;;6.47;;
47778;SDS011;33538;48.432;11.350;2023-02-28T12:40:40;17.25;;;6.30;;
47778;SDS011;33538;48.432;11.350;2023-02-28T12:43:11;13.18;;;6.45;;
47778;SDS011;33538;48.432;11.350;2023-02-28T12:45:41;11.90;;;5.78;;
47778;SDS011;33538;48.432;11.350;2023-02-28T12:48:13;14.27;;;5.97;;
47778;SDS011;33538;48.432;11.350;2023-02-28T12:50:44;13.27;;;6.68;;
47778;SDS011;33538;48.432;11.350;2023-02-28T12:53:13;14.93;;;6.88;;
47778;SDS011;33538;48.432;11.350;2023-02-28T12:55:48;30.73;;;11.45;;
47778;SDS011;33538;48.432;11.350;2023-02-28T12:58:25;31.08;;;10.32;;
47778;SDS011;33538;48.432;11.350;2023-02-28T13:01:04;18.83;;;7.90;;
47778;SDS011;33538;48.432;11.350;2023-02-28T13:06:59;14.07;;;7.50;;
47778;SDS011;33538;48.432;11.350;2023-02-28T13:09:38;15.27;;;7.00;;
47778;SDS011;33538;48.432;11.350;2023-02-28T13:12:12;14.07;;;6.43;;
47778;SDS011;33538;48.432;11.350;2023-02-28T13:14:40;13.70;;;6.07;;
47778;SDS011;33538;48.432;11.350;2023-02-28T13:17:10;12.73;;;6.47;;
47778;SDS011;33538;48.432;11.350;2023-02-28T13:19:40;13.10;;;5.95;;
47778;SDS011;33538;48.432;11.350;2023-02-28T13:22:16;10.60;;;5.85;;
47778;SDS011;33538;48.432;11.350;2023-02-28T13:24:47;12.50;;;5.93;;
47778;SDS011;33538;48.432;11.350;2023-02-28T13:27:31;10.65;;;6.50;;
47778;SDS011;33538;48.432;11.350;2023-02-28T13:30:00;10.60;;;4.88;;
47778;SDS011;33538;48.432;11.350;2023-02-28T13:32:31;12.32;;;7.07;;
47778;SDS011;33538;48.432;11.350;2023-02-28T13:38:09;13.32;;;5.72;;
47778;SDS011;33538;48.432;11.350;2023-02-28T13:40:44;13.60;;;7.47;;
47778;SDS011;33538;48.432;11.350;2023-02-28T13:43:11;15.63;;;7.93;;
47778;SDS011;33538;48.432;11.350;2023-02-28T13:46:10;13.80;;;7.25;;
47778;SDS011;33538;48.432;11.350;2023-02-28T13:48:38;15.13;;;6.18;;
47778;SDS011;33538;48.432;11.350;2023-02-28T13:54:06;15.48;;;7.90;;
47778;SDS011;33538;48.432;11.350;2023-02-28T13:56:48;12.32;;;5.55;;
47778;SDS011;33538;48.432;11.350;2023-02-28T13:59:29;14.10;;;6.78;;
47778;SDS011;33538;48.432;11.350;2023-02-28T14:02:03;13.25;;;5.68;;
47778;SDS011;33538;48.432;11.350;2023-02-28T14:04:53;16.35;;;8.35;;
47778;SDS011;33538;48.432;11.350;2023-02-28T14:07:31;15.13;;;6.70;;
47778;SDS011;33538;48.432;11.350;2023-02-28T14:10:03;11.40;;;5.60;;
47778;SDS011;33538;48.432;11.350;2023-02-28T14:15:28;16.42;;;6.65;;
47778;SDS011;33538;48.432;11.350;2023-02-28T14:18:05;15.48;;;7.13;;
47778;SDS011;33538;48.432;11.350;2023-02-28T14:20:52;12.90;;;6.35;;
47778;SDS011;33538;48.432;11.350;2023-02-28T14:26:13;12.60;;;5.65;;
47778;SDS011;33538;48.432;11.350;2023-02-28T14:28:55;14.73;;;5.93;;
47778;SDS011;33538;48.432;11.350;2023-02-28T14:31:43;14.40;;;6.18;;
47778;SDS011;33538;48.432;11.350;2023-02-28T14:34:20;9.18;;;4.82;;
47778;SDS011;33538;48.432;11.350;2023-02-28T14:36:58;14.48;;;5.68;;
47778;SDS011;33538;48.432;11.350;2023-02-28T14:39:27;15.60;;;7.55;;
47778;SDS011;33538;48.432;11.350;2023-02-28T14:41:56;16.88;;;6.80;;
47778;SDS011;33538;48.432;11.350;2023-02-28T14:44:25;15.35;;;5.70;;
47778;SDS011;33538;48.432;11.350;2023-02-28T14:46:54;11.88;;;5.70;;
47778;SDS011;33538;48.432;11.350;2023-02-28T14:49:23;11.77;;;6.00;;
47778;SDS011;33538;48.432;11.350;2023-02-28T14:52:01;14.15;;;6.40;;
47778;SDS011;33538;48.432;11.350;2023-02-28T14:54:31;14.13;;;6.93;;
47778;SDS011;33538;48.432;11.350;2023-02-28T14:56:58;20.50;;;7.28;;
47778;SDS011;33538;48.432;11.350;2023-02-28T14:59:28;13.85;;;7.40;;
47778;SDS011;33538;48.432;11.350;2023-02-28T15:02:15;16.92;;;6.13;;
47778;SDS011;33538;48.432;11.350;2023-02-28T15:04:43;13.55;;;6.22;;
47778;SDS011;33538;48.432;11.350;2023-02-28T15:07:18;14.90;;;6.70;;
47778;SDS011;33538;48.432;11.350;2023-02-28T15:09:44;16.15;;;7.65;;
47778;SDS011;33538;48.432;11.350;2023-02-28T15:12:12;12.07;;;6.75;;
47778;SDS011;33538;48.432;11.350;2023-02-28T15:14:42;16.88;;;7.90;;